Time;durP1;ratioP1;P1;durP2;ratioP2;P2;SDS_P1;SDS_P2;PMS_P1;PMS_P2;Temp;Humidity;BMP_temperature;BMP_pressure;BME280_temperature;BME280_humidity;BME280_pressure;Samples;Min_cycle;Max_cycle;Signal;HPM_P1;HPM_P2
2023/01/04 00:00:31;;;;;;;9.50;2.60;;;8.50;99.90;;;;;;5035970;28;20021;-75
2023/01/04 00:02:57;;;;;;;7.77;2.87;;;8.50;99.90;;;;;;5048290;28;20063;-76
2023/01/04 00:05:23;;;;;;;7.97;3.00;;;8.50;99.90;;;;;;5054385;28;20594;-76
2023/01/04 00:07:48;;;;;;;7.60;2.37;;;8.50;99.90;;;;;;5042880;28;20124;-77
2023/01/04 00:10:14;;;;;;;7.10;2.80;;;8.50;99.90;;;;;;5053081;28;20108;-85
2023/01/04 00:12:39;;;;;;;9.30;2.40;;;8.50;99.90;;;;;;5056154;28;20024;-76
2023/01/04 00:15:06;;;;;;;2.35;1.88;;;8.50;99.90;;;;;;5060049;28;20029;-76
2023/01/04 00:17:32;;;;;;;12.13;2.45;;;8.50;99.90;;;;;;5032911;28;20031;-88
2023/01/04 00:19:58;;;;;;;5.85;2.47;;;8.60;99.90;;;;;;5058668;28;20033;-86
2023/01/04 00:22:24;;;;;;;6.97;2.20;;;8.50;99.90;;;;;;5039319;28;20091;-76
2023/01/04 00:24:49;;;;;;;5.63;2.20;;;8.60;99.90;;;;;;5056411;28;20080;-84
2023/01/04 00:27:15;;;;;;;7.43;1.97;;;8.60;99.90;;;;;;5058033;28;20033;-75
2023/01/04 00:29:41;;;;;;;7.37;2.33;;;8.60;99.90;;;;;;5054585;28;20033;-76
2023/01/04 00:32:06;;;;;;;6.23;2.30;;;8.60;99.90;;;;;;5055413;28;20025;-75
2023/01/04 00:34:32;;;;;;;6.97;2.33;;;8.60;99.90;;;;;;5050651;28;20049;-76
2023/01/04 00:36:58;;;;;;;7.50;2.53;;;8.60;99.90;;;;;;5033936;28;20124;-85
2023/01/04 00:39:24;;;;;;;6.17;2.20;;;8.60;99.90;;;;;;5054178;28;20307;-85
2023/01/04 00:41:53;;;;;;;4.68;1.60;;;8.60;99.90;;;;;;5052009;28;20083;-77
2023/01/04 00:44:22;;;;;;;4.03;1.95;;;8.60;99.90;;;;;;5038910;28;20114;-82
2023/01/04 00:46:48;;;;;;;4.43;1.67;;;8.60;99.90;;;;;;5055097;28;20039;-76
2023/01/04 00:49:13;;;;;;;5.90;2.20;;;8.60;99.90;;;;;;5040020;28;20100;-75
2023/01/04 00:51:40;;;;;;;8.60;1.80;;;8.60;99.90;;;;;;5047264;28;20029;-87
2023/01/04 00:54:11;;;;;;;4.00;1.75;;;8.60;99.90;;;;;;5050948;28;20420;-75
2023/01/04 00:56:36;;;;;;;4.10;1.88;;;8.60;99.90;;;;;;5052841;28;20025;-76
2023/01/04 00:59:03;;;;;;;6.83;1.90;;;8.60;99.90;;;;;;5050394;28;20028;-76
2023/01/04 01:01:30;;;;;;;2.55;1.42;;;8.60;99.90;;;;;;5047478;28;20294;-76
2023/01/04 01:03:59;;;;;;;5.50;2.10;;;8.60;99.90;;;;;;5053720;28;20021;-85
2023/01/04 01:06:26;;;;;;;3.85;1.88;;;8.70;99.90;;;;;;5050360;28;20037;-75
2023/01/04 01:08:52;;;;;;;3.42;1.80;;;8.60;99.90;;;;;;5041472;28;20128;-86
2023/01/04 01:11:18;;;;;;;3.50;1.77;;;8.70;99.90;;;;;;5035744;28;20108;-84
2023/01/04 01:13:45;;;;;;;6.88;1.90;;;8.60;99.90;;;;;;5056178;28;20063;-76
2023/01/04 01:16:13;;;;;;;3.58;1.67;;;8.60;99.90;;;;;;5047823;28;20427;-78
2023/01/04 01:18:41;;;;;;;3.08;1.75;;;8.70;99.90;;;;;;5060827;28;20024;-76
2023/01/04 01:21:15;;;;;;;1.80;1.48;;;8.70;99.90;;;;;;5064355;28;20086;-76
2023/01/04 01:23:42;;;;;;;4.97;1.85;;;8.70;99.90;;;;;;5062701;28;20056;-76
2023/01/04 01:26:11;;;;;;;5.13;1.90;;;8.70;99.90;;;;;;5054228;28;20035;-84
2023/01/04 01:28:37;;;;;;;4.07;2.20;;;8.80;99.90;;;;;;5038126;28;20151;-81
2023/01/04 01:31:26;;;;;;;2.73;2.23;;;8.80;99.90;;;;;;5039773;28;20416;-78
2023/01/04 01:33:53;;;;;;;3.50;2.30;;;8.80;99.90;;;;;;5048491;28;20416;-78
2023/01/04 01:36:21;;;;;;;5.32;2.83;;;8.80;99.90;;;;;;5062147;28;20025;-78
2023/01/04 01:38:48;;;;;;;5.85;3.15;;;8.90;99.90;;;;;;5039383;28;20431;-75
2023/01/04 01:41:18;;;;;;;5.00;3.47;;;8.90;99.90;;;;;;5048386;28;20033;-85
2023/01/04 01:44:02;;;;;;;7.43;4.20;;;8.90;99.90;;;;;;5052246;28;20036;-75
2023/01/04 01:46:39;;;;;;;7.10;3.72;;;9.00;99.90;;;;;;5036357;28;20059;-75
2023/01/04 01:49:23;;;;;;;7.05;4.25;;;9.00;99.90;;;;;;5035072;28;20028;-76
2023/01/04 01:51:51;;;;;;;9.30;4.38;;;9.00;99.90;;;;;;5037774;28;20028;-75
2023/01/04 01:54:41;;;;;;;11.07;4.63;;;9.10;99.90;;;;;;5055004;28;20079;-75
2023/01/04 01:57:09;;;;;;;9.00;4.13;;;9.10;99.90;;;;;;5046323;28;20033;-75
2023/01/04 01:59:39;;;;;;;5.53;4.32;;;9.10;99.90;;;;;;5053284;28;20025;-76
2023/01/04 02:02:05;;;;;;;7.65;4.60;;;9.10;99.90;;;;;;5059047;28;20305;-76
2023/01/04 02:04:31;;;;;;;8.57;4.77;;;9.20;99.90;;;;;;5046891;28;20035;-74
2023/01/04 02:06:58;;;;;;;6.38;4.50;;;9.20;99.90;;;;;;5048401;28;20444;-84
2023/01/04 02:09:24;;;;;;;9.15;4.75;;;9.30;99.90;;;;;;5038560;28;20086;-75
2023/01/04 02:11:50;;;;;;;9.35;5.32;;;9.30;99.90;;;;;;5034213;28;20029;-75
2023/01/04 02:14:27;;;;;;;9.43;4.90;;;9.40;99.90;;;;;;5037198;28;20036;-77
2023/01/04 02:17:10;;;;;;;7.80;5.10;;;9.40;99.90;;;;;;5051706;28;20025;-75
2023/01/04 02:19:57;;;;;;;6.95;5.20;;;9.40;99.90;;;;;;5054446;28;20036;-84
2023/01/04 02:22:32;;;;;;;8.38;5.15;;;9.50;99.90;;;;;;5034033;28;20028;-75
2023/01/04 02:25:19;;;;;;;10.57;5.07;;;9.50;99.90;;;;;;5036031;28;20522;-85
2023/01/04 02:28:15;;;;;;;12.88;6.15;;;9.60;99.90;;;;;;5059769;28;20029;-87
2023/01/04 02:30:43;;;;;;;8.18;5.50;;;9.60;99.90;;;;;;5062368;28;20079;-76
2023/01/04 02:33:29;;;;;;;9.63;6.03;;;9.60;99.90;;;;;;5057626;28;20055;-83
2023/01/04 02:36:24;;;;;;;8.77;6.18;;;9.60;99.90;;;;;;5056985;28;20029;-76
2023/01/04 02:38:53;;;;;;;16.42;6.72;;;9.70;99.90;;;;;;5055069;28;20033;-80
2023/01/04 02:41:18;;;;;;;11.23;6.72;;;9.70;99.90;;;;;;5057366;28;20028;-75
2023/01/04 02:47:01;;;;;;;11.30;7.40;;;9.70;99.90;;;;;;5048770;28;20503;-77
2023/01/04 02:52:12;;;;;;;13.82;6.97;;;9.70;99.90;;;;;;5048032;28;20048;-75
2023/01/04 02:54:38;;;;;;;12.48;7.25;;;9.70;99.90;;;;;;5049023;28;20021;-75
2023/01/04 02:57:38;;;;;;;11.03;6.53;;;9.70;99.90;;;;;;5031842;28;20029;-77
2023/01/04 03:00:25;;;;;;;12.98;5.57;;;9.80;99.90;;;;;;5049410;28;20100;-77
2023/01/04 03:06:24;;;;;;;9.30;6.28;;;9.80;99.90;;;;;;5053983;28;20110;-75
2023/01/04 03:08:58;;;;;;;9.57;5.70;;;9.80;99.90;;;;;;5050928;28;20112;-75
2023/01/04 03:14:26;;;;;;;8.20;5.60;;;9.90;99.90;;;;;;5053446;28;20605;-75
2023/01/04 03:16:54;;;;;;;9.65;5.53;;;9.90;99.90;;;;;;5054220;28;20051;-75
2023/01/04 03:35:21;;;;;;;15.13;5.95;;;9.90;99.90;;;;;;5047729;28;20124;-75
2023/01/04 03:36:05;;;;;;;7.28;5.03;;;10.00;99.90;;;;;;5056511;28;20091;-82
2023/01/04 03:50:37;;;;;;;13.00;4.78;;;10.00;99.90;;;;;;5054748;28;20124;-77
2023/01/04 03:53:05;;;;;;;8.32;5.00;;;10.10;99.90;;;;;;5053736;28;20807;-76
2023/01/04 03:55:34;;;;;;;7.35;4.95;;;10.10;99.90;;;;;;5032690;28;20033;-75
2023/01/04 03:58:00;;;;;;;11.05;4.93;;;10.10;99.90;;;;;;5054542;28;20408;-77
2023/01/04 04:00:27;;;;;;;8.23;4.43;;;10.10;99.90;;;;;;5052289;28;20025;-76
2023/01/04 04:02:52;;;;;;;8.93;4.63;;;10.10;99.90;;;;;;5053420;28;20041;-75
2023/01/04 04:10:52;;;;;;;9.85;5.40;;;10.20;99.90;;;;;;5057996;28;20653;-74
2023/01/04 04:13:18;;;;;;;8.63;5.45;;;10.20;99.90;;;;;;5046779;28;20132;-82
2023/01/04 04:15:44;;;;;;;8.43;5.53;;;10.20;99.90;;;;;;5053126;28;20108;-74
2023/01/04 04:18:09;;;;;;;22.37;6.13;;;10.20;99.90;;;;;;5057122;28;20328;-75
2023/01/04 04:20:35;;;;;;;8.43;5.67;;;10.20;99.90;;;;;;5034889;28;20044;-77
2023/01/04 04:23:01;;;;;;;8.80;5.63;;;10.30;99.90;;;;;;5053029;28;20033;-82
2023/01/04 04:25:27;;;;;;;9.80;5.53;;;10.30;99.90;;;;;;5054842;28;20039;-76
2023/01/04 04:27:52;;;;;;;15.03;6.27;;;10.30;99.90;;;;;;5031447;28;20033;-76
2023/01/04 04:30:18;;;;;;;10.90;5.47;;;10.30;99.90;;;;;;5030830;28;20120;-76
2023/01/04 04:32:44;;;;;;;9.73;5.87;;;10.30;99.90;;;;;;5050089;28;20104;-75
2023/01/04 04:35:10;;;;;;;15.30;5.13;;;10.40;99.90;;;;;;5042957;28;20033;-76
2023/01/04 04:37:36;;;;;;;14.75;6.45;;;10.40;99.90;;;;;;5031142;28;20039;-78
2023/01/04 04:40:05;;;;;;;12.20;6.17;;;10.40;99.90;;;;;;5037326;28;20033;-75
2023/01/04 04:42:31;;;;;;;11.52;6.70;;;10.50;99.90;;;;;;5047114;28;20033;-80
2023/01/04 04:44:57;;;;;;;9.97;5.63;;;10.50;99.90;;;;;;5051545;28;20036;-75
2023/01/04 04:47:22;;;;;;;12.23;5.90;;;10.50;99.90;;;;;;5043404;28;20086;-76
2023/01/04 04:49:48;;;;;;;11.73;6.60;;;10.50;99.90;;;;;;5035226;28;20649;-75
2023/01/04 04:52:14;;;;;;;17.57;7.13;;;10.50;99.90;;;;;;5060075;28;20025;-87
2023/01/04 04:54:39;;;;;;;13.77;7.27;;;10.50;99.90;;;;;;5049289;28;20028;-77
2023/01/04 04:57:05;;;;;;;15.17;7.00;;;10.50;99.90;;;;;;5014379;28;20355;-76
2023/01/04 04:59:31;;;;;;;17.70;7.27;;;10.60;99.90;;;;;;5052750;28;20029;-76
2023/01/04 05:01:56;;;;;;;12.77;6.43;;;10.60;99.90;;;;;;5032005;28;20056;-88
2023/01/04 05:04:22;;;;;;;14.13;5.80;;;10.60;99.90;;;;;;5009970;28;20032;-75
2023/01/04 05:06:51;;;;;;;11.97;6.13;;;10.60;99.90;;;;;;5055666;28;20061;-76
2023/01/04 05:09:17;;;;;;;13.80;7.10;;;10.60;99.90;;;;;;5041098;28;20412;-77
2023/01/04 05:14:27;;;;;;;11.43;6.22;;;10.70;99.90;;;;;;5048844;28;20493;-76
2023/01/04 05:16:53;;;;;;;12.20;6.10;;;10.70;99.90;;;;;;5055185;28;20038;-74
2023/01/04 05:19:19;;;;;;;9.73;5.70;;;10.70;99.90;;;;;;5053903;28;20038;-76
2023/01/04 05:21:44;;;;;;;10.90;6.13;;;10.70;99.90;;;;;;5056812;28;20040;-76
2023/01/04 05:24:11;;;;;;;9.23;4.80;;;10.70;99.90;;;;;;5052304;28;20327;-78
2023/01/04 05:26:37;;;;;;;12.98;6.15;;;10.70;99.90;;;;;;5048167;28;20518;-76
2023/01/04 05:29:03;;;;;;;9.70;5.95;;;10.70;99.90;;;;;;5034502;28;20079;-74
2023/01/04 05:31:29;;;;;;;11.60;6.30;;;10.70;99.90;;;;;;5053055;28;20028;-77
2023/01/04 05:33:54;;;;;;;10.63;5.53;;;10.70;99.90;;;;;;5048090;28;20029;-76
2023/01/04 05:36:20;;;;;;;8.70;4.70;;;10.70;99.90;;;;;;5050845;28;20029;-85
2023/01/04 05:38:46;;;;;;;7.43;4.43;;;10.70;99.90;;;;;;5029556;28;20036;-79
2023/01/04 05:43:56;;;;;;;5.68;3.75;;;10.60;99.90;;;;;;5051190;28;20047;-76
2023/01/04 05:46:21;;;;;;;4.70;3.60;;;10.70;99.90;;;;;;5035771;28;20474;-75
2023/01/04 05:48:47;;;;;;;7.23;3.07;;;10.60;99.90;;;;;;5036815;28;20029;-75
2023/01/04 05:51:13;;;;;;;4.73;3.30;;;10.60;99.90;;;;;;5053159;28;20028;-75
2023/01/04 05:53:38;;;;;;;7.93;3.50;;;10.60;99.90;;;;;;5053419;28;20024;-75
2023/01/04 05:56:04;;;;;;;4.43;3.33;;;10.60;99.90;;;;;;5032774;28;20025;-82
2023/01/04 05:58:30;;;;;;;4.57;3.00;;;10.60;99.90;;;;;;5037881;28;20032;-81
2023/01/04 06:00:56;;;;;;;4.07;2.90;;;10.60;99.90;;;;;;5047581;28;20360;-76
2023/01/04 06:03:21;;;;;;;6.50;2.90;;;10.60;99.90;;;;;;5035640;28;20487;-76
2023/01/04 06:05:51;;;;;;;5.10;3.50;;;10.70;99.90;;;;;;5047924;28;20044;-77
2023/01/04 06:08:16;;;;;;;5.43;3.33;;;10.60;99.90;;;;;;5037294;28;20024;-78
2023/01/04 06:10:42;;;;;;;4.70;3.13;;;10.70;99.90;;;;;;5053358;28;20043;-76
2023/01/04 06:13:08;;;;;;;5.43;3.50;;;10.70;99.90;;;;;;5052830;28;20072;-75
2023/01/04 06:15:33;;;;;;;7.83;3.73;;;10.80;99.90;;;;;;5044444;28;20429;-76
2023/01/04 06:17:59;;;;;;;6.50;3.60;;;10.70;99.90;;;;;;5048333;28;20100;-89
2023/01/04 06:20:25;;;;;;;5.50;3.20;;;10.70;99.90;;;;;;5035361;28;20029;-77
2023/01/04 06:22:51;;;;;;;6.53;3.53;;;10.80;99.90;;;;;;5043367;28;20458;-75
2023/01/04 06:25:17;;;;;;;7.43;4.10;;;10.80;99.90;;;;;;5074722;23;20084;-76
2023/01/04 06:27:42;;;;;;;9.03;4.13;;;10.80;99.90;;;;;;5051449;28;20032;-76
2023/01/04 06:30:09;;;;;;;6.60;3.95;;;10.80;99.90;;;;;;5058726;28;20617;-77
2023/01/04 06:32:34;;;;;;;6.25;4.25;;;10.80;99.90;;;;;;5039638;28;20025;-76
2023/01/04 06:35:00;;;;;;;9.93;5.10;;;10.80;99.90;;;;;;5048615;28;20098;-77
2023/01/04 06:37:26;;;;;;;11.93;4.70;;;10.90;99.90;;;;;;5039148;28;20111;-76
2023/01/04 06:39:51;;;;;;;13.13;5.43;;;10.90;99.90;;;;;;5052903;28;20083;-83
2023/01/04 06:45:01;;;;;;;9.93;5.50;;;11.00;99.90;;;;;;5046150;28;20036;-76
2023/01/04 06:47:27;;;;;;;15.53;6.00;;;11.00;99.90;;;;;;5062701;28;20033;-79
2023/01/04 06:49:53;;;;;;;14.47;5.60;;;11.00;99.90;;;;;;5054594;28;20029;-76
2023/01/04 06:52:19;;;;;;;12.33;6.00;;;11.00;99.90;;;;;;5052695;28;20020;-75
2023/01/04 06:54:44;;;;;;;9.75;6.13;;;11.00;99.90;;;;;;5052530;28;20032;-76
2023/01/04 06:57:11;;;;;;;10.43;6.20;;;11.00;99.90;;;;;;5056693;28;20348;-84
2023/01/04 06:59:37;;;;;;;9.77;5.25;;;11.00;99.90;;;;;;5049156;28;20032;-77
2023/01/04 07:02:03;;;;;;;13.20;5.37;;;11.10;99.90;;;;;;5051665;28;20054;-77
2023/01/04 07:04:28;;;;;;;14.70;6.00;;;11.00;99.90;;;;;;5050085;28;20056;-76
2023/01/04 07:06:54;;;;;;;9.20;5.67;;;11.00;99.90;;;;;;5056966;28;20400;-80
2023/01/04 07:09:20;;;;;;;9.17;5.50;;;11.10;99.90;;;;;;5042475;28;20033;-76
2023/01/04 07:11:45;;;;;;;10.40;5.50;;;11.00;99.90;;;;;;5041652;28;20070;-76
2023/01/04 07:14:11;;;;;;;15.73;5.90;;;11.00;99.90;;;;;;5057421;28;20374;-82
2023/01/04 07:16:36;;;;;;;7.97;5.33;;;11.10;99.90;;;;;;5038720;28;20025;-76
2023/01/04 07:19:02;;;;;;;17.97;5.93;;;11.10;99.90;;;;;;5061857;28;20441;-83
2023/01/04 07:21:28;;;;;;;10.97;5.77;;;11.10;99.90;;;;;;5055725;28;20344;-79
2023/01/04 07:23:54;;;;;;;8.63;5.60;;;11.10;99.90;;;;;;5061441;28;20096;-84
2023/01/04 07:26:20;;;;;;;12.60;5.87;;;11.10;99.90;;;;;;5039597;28;20119;-85
2023/01/04 07:31:30;;;;;;;11.20;6.13;;;11.10;99.90;;;;;;5051785;28;20102;-85
2023/01/04 07:33:56;;;;;;;14.87;5.67;;;11.10;99.90;;;;;;5038743;28;20069;-85
2023/01/04 07:36:21;;;;;;;27.77;13.07;;;11.10;99.90;;;;;;5055021;28;20408;-77
2023/01/04 07:38:47;;;;;;;12.73;6.10;;;11.10;99.90;;;;;;5061729;28;20044;-79
2023/01/04 07:41:13;;;;;;;11.17;4.93;;;11.10;99.90;;;;;;5054918;28;20036;-77
2023/01/04 07:43:38;;;;;;;17.13;7.50;;;11.10;99.90;;;;;;5055225;28;20032;-77
2023/01/04 07:46:04;;;;;;;8.50;4.60;;;11.10;99.90;;;;;;5057295;28;20033;-78
2023/01/04 07:48:30;;;;;;;14.93;6.43;;;11.10;99.90;;;;;;5047403;28;20155;-77
2023/01/04 07:50:55;;;;;;;10.27;4.97;;;11.10;99.90;;;;;;5047916;28;20048;-77
2023/01/04 07:53:21;;;;;;;8.20;5.10;;;11.10;99.90;;;;;;5031973;28;20030;-78
2023/01/04 07:55:47;;;;;;;14.13;5.20;;;11.10;99.90;;;;;;5046115;28;20404;-85
2023/01/04 07:58:12;;;;;;;14.07;4.97;;;11.10;99.90;;;;;;5037151;28;20040;-80
2023/01/04 08:00:38;;;;;;;18.53;5.77;;;11.10;99.90;;;;;;5034337;28;20068;-82
2023/01/04 08:03:04;;;;;;;11.20;5.23;;;11.10;99.90;;;;;;5053457;28;20056;-76
2023/01/04 08:05:34;;;;;;;12.20;5.40;;;11.10;99.90;;;;;;5009058;28;20038;-77
2023/01/04 08:07:59;;;;;;;9.93;6.65;;;11.10;99.90;;;;;;5047201;28;20021;-76
2023/01/04 08:10:25;;;;;;;14.13;4.70;;;11.10;99.90;;;;;;5046912;28;20476;-85
2023/01/04 08:12:51;;;;;;;14.80;8.13;;;11.10;99.90;;;;;;5046134;28;20025;-76
2023/01/04 08:15:17;;;;;;;15.90;5.50;;;11.10;99.90;;;;;;5032513;28;20036;-76
2023/01/04 08:17:42;;;;;;;8.33;4.87;;;11.10;99.90;;;;;;5047811;28;20056;-79
2023/01/04 08:20:08;;;;;;;12.90;4.97;;;11.20;99.90;;;;;;5030156;28;20067;-79
2023/01/04 08:22:34;;;;;;;11.20;5.00;;;11.10;99.90;;;;;;5044329;28;20029;-77
2023/01/04 08:25:00;;;;;;;13.97;4.70;;;11.10;99.90;;;;;;5043526;28;20328;-80
2023/01/04 08:27:25;;;;;;;13.23;5.37;;;11.10;99.90;;;;;;5019889;28;20033;-78
2023/01/04 08:29:51;;;;;;;10.97;4.17;;;11.10;99.90;;;;;;5052211;28;20119;-78
2023/01/04 08:32:17;;;;;;;8.93;3.33;;;11.20;99.90;;;;;;5052869;28;20033;-76
2023/01/04 08:34:42;;;;;;;11.90;3.30;;;11.10;99.90;;;;;;5047505;28;20156;-77
2023/01/04 08:37:08;;;;;;;11.43;3.63;;;11.10;99.90;;;;;;5044274;28;20078;-78
2023/01/04 08:39:34;;;;;;;6.50;3.27;;;11.20;99.90;;;;;;5039576;28;20827;-84
2023/01/04 08:42:00;;;;;;;9.00;2.97;;;11.20;99.90;;;;;;5044627;28;20057;-76
2023/01/04 08:44:26;;;;;;;12.90;2.83;;;11.20;99.90;;;;;;5061599;28;20025;-76
2023/01/04 08:46:53;;;;;;;4.23;2.20;;;11.20;99.90;;;;;;5053076;28;20469;-77
2023/01/04 08:49:20;;;;;;;6.68;2.10;;;11.30;99.90;;;;;;5055386;28;20428;-75
2023/01/04 08:51:47;;;;;;;19.10;2.40;;;11.30;99.90;;;;;;5041190;28;20029;-88
2023/01/04 08:54:13;;;;;;;10.55;1.75;;;11.30;99.90;;;;;;5058142;28;20025;-80
2023/01/04 08:56:39;;;;;;;11.70;1.90;;;11.40;99.90;;;;;;5050298;28;20059;-79
2023/01/04 08:59:05;;;;;;;9.17;1.83;;;11.40;99.90;;;;;;5055887;28;20016;-79
2023/01/04 09:01:32;;;;;;;6.55;2.00;;;11.40;99.90;;;;;;5053263;28;20021;-81
2023/01/04 09:03:58;;;;;;;8.38;1.98;;;11.40;99.90;;;;;;5040738;28;20033;-77
2023/01/04 09:06:23;;;;;;;4.45;2.22;;;11.50;99.90;;;;;;5054956;28;20033;-79
2023/01/04 09:08:49;;;;;;;9.63;1.97;;;11.50;99.90;;;;;;5036515;28;20039;-82
2023/01/04 09:11:20;;;;;;;4.67;1.63;;;11.50;99.90;;;;;;5052313;28;20029;-78
2023/01/04 09:13:47;;;;;;;13.55;2.42;;;11.50;99.90;;;;;;5041071;28;20067;-79
2023/01/04 09:16:17;;;;;;;;;;;11.50;99.90;;;;;;5041700;28;20040;-74
2023/01/04 09:18:43;;;;;;;9.55;2.55;;;11.60;99.90;;;;;;5027880;28;19923;-81
2023/01/04 09:21:14;;;;;;;14.35;3.13;;;11.50;99.90;;;;;;5032696;28;20031;-83
2023/01/04 09:23:41;;;;;;;16.52;2.30;;;11.60;99.90;;;;;;5046362;28;20380;-77
2023/01/04 09:26:07;;;;;;;13.48;1.98;;;11.60;99.90;;;;;;5054553;28;20444;-76
2023/01/04 09:28:33;;;;;;;15.23;2.70;;;11.60;99.90;;;;;;5044574;28;20037;-76
2023/01/04 09:31:04;;;;;;;9.63;2.23;;;11.60;99.90;;;;;;5026912;28;20032;-79
2023/01/04 09:33:30;;;;;;;24.98;2.40;;;11.60;99.90;;;;;;5046266;28;20041;-87
2023/01/04 09:36:03;;;;;;;12.13;2.53;;;11.60;99.90;;;;;;5037390;28;20041;-77
2023/01/04 09:38:29;;;;;;;12.00;2.13;;;11.60;99.90;;;;;;5037586;28;20036;-76
2023/01/04 09:40:55;;;;;;;16.55;3.03;;;11.70;99.90;;;;;;5051486;28;20037;-86
2023/01/04 09:43:22;;;;;;;20.93;2.67;;;11.70;99.90;;;;;;5051795;28;20098;-76
2023/01/04 09:45:52;;;;;;;21.85;2.45;;;11.70;99.90;;;;;;5054533;28;20446;-78
2023/01/04 09:48:21;;;;;;;17.95;2.35;;;11.70;99.90;;;;;;5039348;28;20029;-75
2023/01/04 09:50:49;;;;;;;22.45;2.97;;;11.70;99.90;;;;;;5059178;28;20055;-77
2023/01/04 09:53:27;;;;;;;11.52;2.55;;;11.70;99.90;;;;;;5052429;28;20034;-79
2023/01/04 09:56:00;;;;;;;11.32;2.13;;;11.70;99.90;;;;;;5052674;28;20041;-76
2023/01/04 09:58:38;;;;;;;13.75;2.50;;;11.70;99.90;;;;;;5043764;28;20423;-86
2023/01/04 10:01:13;;;;;;;14.57;2.92;;;11.80;99.90;;;;;;5054361;28;20028;-77
2023/01/04 10:03:45;;;;;;;10.80;2.33;;;11.70;99.90;;;;;;5034886;28;20040;-86
2023/01/04 10:06:11;;;;;;;13.80;2.42;;;11.80;99.90;;;;;;5040228;28;20024;-77
2023/01/04 10:08:42;;;;;;;10.30;2.50;;;11.80;99.90;;;;;;5034421;28;20129;-88
2023/01/04 10:11:17;;;;;;;16.88;3.10;;;11.80;99.90;;;;;;5036663;28;20037;-78
2023/01/04 10:13:48;;;;;;;14.70;3.35;;;11.80;99.90;;;;;;5047452;28;20297;-79
2023/01/04 10:16:44;;;;;;;17.80;3.00;;;11.80;99.90;;;;;;5060073;28;20040;-79
2023/01/04 10:19:48;;;;;;;18.17;3.25;;;11.80;99.90;;;;;;5052205;28;20021;-77
2023/01/04 10:22:48;;;;;;;20.88;4.47;;;11.90;99.90;;;;;;5035245;28;20124;-77
2023/01/04 10:25:13;;;;;;;18.25;2.95;;;11.90;99.90;;;;;;4945386;28;20053;-76
2023/01/04 10:28:10;;;;;;;16.80;3.30;;;11.90;99.90;;;;;;5030097;28;20090;-76
2023/01/04 10:30:48;;;;;;;33.53;3.70;;;11.90;99.90;;;;;;5035346;28;20030;-76
2023/01/04 10:33:29;;;;;;;17.33;2.72;;;11.90;99.90;;;;;;5029886;28;20025;-77
2023/01/04 10:35:56;;;;;;;14.60;2.83;;;12.00;99.90;;;;;;5028538;28;20424;-78
2023/01/04 10:38:35;;;;;;;18.27;2.45;;;12.00;99.90;;;;;;5029723;28;20116;-77
2023/01/04 10:41:08;;;;;;;16.23;3.10;;;12.00;99.90;;;;;;5034712;28;20034;-78
2023/01/04 10:43:48;;;;;;;11.10;1.92;;;12.00;99.90;;;;;;5033954;28;20022;-76
2023/01/04 10:46:23;;;;;;;14.30;3.33;;;12.00;99.90;;;;;;5029576;28;20112;-77
2023/01/04 10:48:59;;;;;;;10.15;2.40;;;12.00;99.90;;;;;;5036090;28;20041;-77
2023/01/04 10:51:38;;;;;;;11.27;2.22;;;12.00;99.90;;;;;;5040963;28;20108;-83
2023/01/04 10:54:26;;;;;;;12.48;2.90;;;12.00;99.90;;;;;;5038912;28;20029;-79
2023/01/04 10:57:30;;;;;;;12.73;2.47;;;12.00;99.90;;;;;;5036653;28;20032;-85
2023/01/04 11:00:05;;;;;;;9.20;3.30;;;12.00;99.90;;;;;;5040848;28;20060;-88
2023/01/04 11:03:11;;;;;;;9.57;2.95;;;12.00;99.90;;;;;;5034820;28;20049;-86
2023/01/04 11:05:43;;;;;;;13.52;3.17;;;12.00;99.90;;;;;;4971042;28;20435;-77
2023/01/04 11:08:20;;;;;;;11.10;3.08;;;12.00;99.90;;;;;;5034571;28;20037;-86
2023/01/04 11:11:17;;;;;;;11.73;2.70;;;12.00;99.90;;;;;;5035916;28;20475;-76
2023/01/04 11:13:43;;;;;;;8.63;2.60;;;12.00;99.90;;;;;;5031111;28;20071;-75
2023/01/04 11:16:08;;;;;;;13.33;3.47;;;12.00;99.90;;;;;;5028756;28;20479;-76
2023/01/04 11:18:38;;;;;;;6.07;1.90;;;12.10;99.90;;;;;;5034567;28;20060;-77
2023/01/04 11:21:11;;;;;;;6.63;2.15;;;12.10;99.90;;;;;;5033658;28;20018;-77
2023/01/04 11:23:37;;;;;;;4.35;1.75;;;12.10;99.90;;;;;;5030779;28;20030;-76
2023/01/04 11:26:12;;;;;;;9.10;2.53;;;12.10;99.90;;;;;;5038913;28;20091;-77
2023/01/04 11:29:11;;;;;;;10.38;2.50;;;12.10;99.90;;;;;;5031274;28;20014;-77
2023/01/04 11:32:01;;;;;;;14.10;2.10;;;12.10;99.90;;;;;;5037745;28;20029;-90
2023/01/04 11:34:45;;;;;;;11.95;2.20;;;12.10;99.90;;;;;;5031180;28;20022;-90
2023/01/04 11:37:24;;;;;;;11.70;2.53;;;12.20;99.90;;;;;;5026540;28;20031;-76
2023/01/04 11:39:50;;;;;;;9.82;2.00;;;12.20;99.90;;;;;;5025768;28;20057;-77
2023/01/04 11:42:20;;;;;;;5.30;2.47;;;12.20;99.90;;;;;;5046121;28;20063;-88
2023/01/04 11:44:57;;;;;;;6.18;2.03;;;12.20;99.90;;;;;;5039640;28;20029;-77
2023/01/04 11:47:24;;;;;;;14.55;2.35;;;12.20;99.90;;;;;;5043279;28;20032;-77
2023/01/04 11:49:50;;;;;;;10.85;2.20;;;12.20;99.90;;;;;;5039169;28;20029;-87
2023/01/04 11:52:34;;;;;;;17.43;2.23;;;12.20;99.90;;;;;;5038734;28;20029;-88
2023/01/04 11:55:26;;;;;;;12.57;2.25;;;12.20;99.90;;;;;;5032966;28;20017;-75
2023/01/04 11:58:26;;;;;;;20.52;2.40;;;12.20;99.90;;;;;;5038563;28;20037;-77
2023/01/04 12:00:55;;;;;;;9.88;1.90;;;12.30;99.90;;;;;;5007504;28;20034;-85
2023/01/04 12:03:25;;;;;;;8.65;1.50;;;12.30;99.90;;;;;;5026080;28;20018;-87
2023/01/04 12:05:51;;;;;;;10.50;2.15;;;12.30;99.90;;;;;;5033019;28;20435;-76
2023/01/04 12:08:30;;;;;;;9.35;2.03;;;12.30;99.90;;;;;;5033547;28;20029;-87
2023/01/04 12:10:57;;;;;;;10.00;1.80;;;12.40;99.90;;;;;;5035157;28;20033;-77
2023/01/04 12:13:23;;;;;;;10.68;1.70;;;12.40;99.90;;;;;;5032320;28;20446;-76
2023/01/04 12:16:26;;;;;;;8.17;2.03;;;12.40;99.90;;;;;;5039436;28;20041;-91
2023/01/04 12:18:52;;;;;;;10.05;2.13;;;12.40;99.90;;;;;;5027768;28;20176;-76
2023/01/04 12:21:21;;;;;;;13.90;2.78;;;12.40;99.90;;;;;;5032786;28;20117;-77
2023/01/04 12:23:47;;;;;;;16.58;2.50;;;12.40;99.90;;;;;;5036599;28;20029;-78
2023/01/04 12:26:13;;;;;;;15.63;2.85;;;12.40;99.90;;;;;;5038404;28;20033;-79
2023/01/04 12:28:45;;;;;;;11.20;1.77;;;12.50;99.90;;;;;;5050989;28;20031;-87
2023/01/04 12:31:20;;;;;;;17.38;3.38;;;12.50;99.90;;;;;;5037270;28;20025;-77
2023/01/04 12:34:19;;;;;;;15.50;2.95;;;12.50;99.90;;;;;;5050456;28;20024;-76
2023/01/04 12:36:52;;;;;;;15.88;2.30;;;12.50;99.90;;;;;;5035048;28;20407;-75
2023/01/04 12:39:28;;;;;;;13.70;2.08;;;12.50;99.90;;;;;;5060685;28;20025;-91
2023/01/04 12:41:59;;;;;;;10.77;2.35;;;12.50;99.90;;;;;;5038500;28;20162;-76
2023/01/04 12:44:43;;;;;;;10.52;2.55;;;12.50;99.90;;;;;;5045946;28;20071;-85
2023/01/04 12:50:17;;;;;;;12.85;2.65;;;12.50;99.90;;;;;;5054605;28;20040;-77
2023/01/04 12:52:51;;;;;;;17.75;2.50;;;12.50;99.90;;;;;;5034332;28;20025;-77
2023/01/04 12:55:31;;;;;;;16.02;2.10;;;12.50;99.90;;;;;;5057853;28;20095;-88
2023/01/04 12:58:02;;;;;;;11.98;1.80;;;12.50;99.90;;;;;;5049814;28;20332;-87
2023/01/04 13:01:00;;;;;;;9.50;1.90;;;12.50;99.90;;;;;;5040267;28;20059;-90
2023/01/04 13:03:28;;;;;;;14.05;2.60;;;12.50;99.90;;;;;;5037053;28;20090;-77
2023/01/04 13:06:05;;;;;;;11.32;1.83;;;12.50;99.90;;;;;;5042348;28;20111;-86
2023/01/04 13:08:39;;;;;;;11.43;2.05;;;12.50;99.90;;;;;;5065159;28;20309;-77
2023/01/04 13:11:23;;;;;;;19.98;1.90;;;12.50;99.90;;;;;;5059841;28;20094;-77
2023/01/04 13:13:55;;;;;;;16.15;1.90;;;12.50;99.90;;;;;;5053678;28;20127;-76
2023/01/04 13:16:38;;;;;;;15.27;2.67;;;12.50;99.90;;;;;;5040804;28;20111;-76
2023/01/04 13:19:14;;;;;;;12.15;2.22;;;12.50;99.90;;;;;;5043693;28;20102;-76
2023/01/04 13:21:47;;;;;;;20.02;2.53;;;12.50;99.90;;;;;;5036970;28;20029;-77
2023/01/04 13:24:22;;;;;;;11.57;1.88;;;12.50;99.90;;;;;;5048019;28;20418;-81
2023/01/04 13:26:51;;;;;;;12.10;2.05;;;12.50;99.90;;;;;;5057939;28;20056;-80
2023/01/04 13:29:30;;;;;;;12.02;1.75;;;12.50;99.90;;;;;;5052321;28;20467;-76
2023/01/04 13:32:03;;;;;;;7.57;1.65;;;12.40;99.90;;;;;;5055100;28;20024;-84
2023/01/04 13:34:33;;;;;;;10.98;2.33;;;12.40;99.90;;;;;;5036515;28;20025;-89
2023/01/04 13:37:06;;;;;;;11.68;2.72;;;12.40;99.90;;;;;;5033065;28;20026;-82
2023/01/04 13:39:32;;;;;;;16.23;2.75;;;12.40;99.90;;;;;;5035090;28;20032;-76
2023/01/04 13:41:58;;;;;;;10.90;2.70;;;12.40;99.90;;;;;;5052459;28;20336;-77
2023/01/04 13:44:47;;;;;;;13.05;2.00;;;12.40;99.90;;;;;;5050750;28;20029;-78
2023/01/04 13:47:13;;;;;;;14.98;2.33;;;12.40;99.90;;;;;;5047327;28;20044;-78
2023/01/04 13:49:39;;;;;;;19.70;2.67;;;12.40;99.90;;;;;;5046964;28;20021;-76
2023/01/04 13:52:28;;;;;;;19.70;2.55;;;12.40;99.90;;;;;;5041420;28;20021;-76
2023/01/04 13:55:09;;;;;;;15.30;2.40;;;12.30;99.90;;;;;;5037754;28;20416;-78
2023/01/04 13:57:35;;;;;;;19.60;2.88;;;12.30;99.90;;;;;;5062288;28;20055;-77